Terminal Aerodrome Forecast
Issued by NWS Sterling, VA

Current Version | Previous Version | Graphics & Text | Print | Product List | Glossary On
Versions: 1 2 3 4 5 6 7 8 9 10 11 12 13 14 15 16 17 18 19 20 21 22 23
000
FTUS41 KLWX 211430 AAA
TAFIAD
TAF AMD
KIAD 211430Z 2114/2218 31004KT P6SM FEW150 FEW250
     FM220700 VRB03KT P6SM SCT090 OVC110=

USA.gov is the U.S. government's official web portal to all federal, state and local government web resources and services.